createdAt,value
2022-12-06T00:00:11.978Z,68.83
2022-12-06T00:00:48.141Z,68.75
2022-12-06T00:01:25.096Z,68.74
2022-12-06T00:01:57.086Z,68.81
2022-12-06T00:02:29.164Z,68.80
2022-12-06T00:03:01.190Z,68.83
2022-12-06T00:03:33.392Z,68.85
2022-12-06T00:04:06.763Z,68.81
2022-12-06T00:04:38.493Z,68.80
2022-12-06T00:05:10.451Z,68.82
2022-12-06T00:05:46.219Z,68.82
2022-12-06T00:06:19.603Z,68.78
2022-12-06T00:06:51.401Z,68.83
2022-12-06T00:07:23.154Z,68.87
2022-12-06T00:07:54.978Z,68.86
2022-12-06T00:08:26.806Z,68.88
2022-12-06T00:08:59.199Z,68.85
2022-12-06T00:09:32.074Z,68.88
2022-12-06T00:10:04.405Z,68.94
2022-12-06T00:10:36.509Z,68.95
2022-12-06T00:11:15.684Z,68.95
2022-12-06T00:11:47.773Z,68.94
2022-12-06T00:12:19.470Z,68.97
2022-12-06T00:12:51.741Z,68.98
2022-12-06T00:13:23.708Z,69.02
2022-12-06T00:13:56.949Z,69.02
2022-12-06T00:14:28.681Z,69.02
2022-12-06T00:15:00.356Z,69.09
2022-12-06T00:15:35.086Z,69.12
2022-12-06T00:16:08.604Z,69.16
2022-12-06T00:16:41.071Z,69.12
2022-12-06T00:17:13.130Z,69.14
2022-12-06T00:17:44.796Z,69.14
2022-12-06T00:18:16.595Z,69.07
2022-12-06T00:18:48.315Z,69.08
2022-12-06T00:19:21.481Z,69.09
2022-12-06T00:19:53.330Z,69.13
2022-12-06T00:20:25.174Z,69.12
2022-12-06T00:20:57.052Z,69.13
2022-12-06T00:21:35.943Z,69.13
2022-12-06T00:22:07.708Z,69.11
2022-12-06T00:22:43.460Z,69.10
2022-12-06T00:23:15.196Z,69.08
2022-12-06T00:23:57.093Z,69.05
2022-12-06T00:24:28.927Z,69.07
2022-12-06T00:25:00.952Z,68.99
2022-12-06T00:25:35.150Z,68.98
2022-12-06T00:26:08.098Z,68.95
2022-12-06T00:26:41.082Z,68.96
2022-12-06T00:27:12.764Z,69.01
2022-12-06T00:27:44.586Z,69.05
2022-12-06T00:28:16.612Z,69.01
2022-12-06T00:28:48.644Z,68.94
2022-12-06T00:29:22.120Z,68.94
2022-12-06T00:29:54.057Z,68.89
2022-12-06T00:30:25.889Z,68.93
2022-12-06T00:30:59.055Z,68.96
2022-12-06T00:31:31.603Z,69.01
2022-12-06T00:32:03.473Z,69.05
2022-12-06T00:32:35.210Z,69.03
2022-12-06T00:33:07.116Z,69.00
2022-12-06T00:33:39.041Z,68.98
2022-12-06T00:34:10.935Z,68.94
2022-12-06T00:34:42.888Z,68.90
2022-12-06T00:35:14.606Z,68.93
2022-12-06T00:35:54.313Z,68.89
2022-12-06T00:36:27.969Z,68.86
2022-12-06T00:36:59.939Z,68.87
2022-12-06T00:37:31.678Z,68.87
2022-12-06T00:38:03.554Z,68.84
2022-12-06T00:38:36.106Z,68.83
2022-12-06T00:39:09.574Z,68.86
2022-12-06T00:39:41.895Z,68.87
2022-12-06T00:40:13.858Z,68.91
2022-12-06T00:40:45.622Z,68.94
2022-12-06T00:41:18.743Z,68.93
2022-12-06T00:41:50.718Z,68.94
2022-12-06T00:42:22.502Z,68.95
2022-12-06T00:42:54.230Z,68.94
2022-12-06T00:43:26.900Z,68.95
2022-12-06T00:43:58.732Z,68.96
2022-12-06T00:44:30.718Z,69.00
2022-12-06T00:45:02.468Z,68.99
2022-12-06T00:45:34.188Z,68.92
2022-12-06T00:46:07.654Z,68.88
2022-12-06T00:46:39.766Z,68.89
2022-12-06T00:47:11.828Z,68.89
2022-12-06T00:47:43.770Z,68.82
2022-12-06T00:48:15.583Z,68.84
2022-12-06T00:48:48.207Z,68.86
2022-12-06T00:49:19.984Z,68.81
2022-12-06T00:49:52.173Z,68.84
2022-12-06T00:50:23.966Z,68.84
2022-12-06T00:50:55.853Z,68.80
2022-12-06T00:51:29.042Z,68.73
2022-12-06T00:52:00.817Z,68.68
2022-12-06T00:52:32.527Z,68.68
2022-12-06T00:53:04.351Z,68.69
2022-12-06T00:53:36.327Z,68.63
2022-12-06T00:54:08.598Z,68.65
2022-12-06T00:54:40.303Z,68.64
2022-12-06T00:55:12.237Z,68.68
2022-12-06T00:55:44.034Z,68.66
2022-12-06T00:56:16.397Z,68.65
2022-12-06T00:56:48.422Z,68.57
2022-12-06T00:57:20.369Z,68.55
2022-12-06T00:57:52.188Z,68.56
2022-12-06T00:58:23.967Z,68.56
2022-12-06T00:58:55.802Z,68.59
2022-12-06T00:59:27.563Z,68.60
2022-12-06T00:59:59.761Z,68.63
2022-12-06T01:00:31.834Z,68.66
2022-12-06T01:01:10.923Z,68.69
2022-12-06T01:01:42.721Z,68.76
2022-12-06T01:02:14.523Z,68.71
2022-12-06T01:02:46.616Z,68.75
2022-12-06T01:03:18.515Z,68.76
2022-12-06T01:03:51.820Z,68.68
2022-12-06T01:04:23.790Z,68.71
2022-12-06T01:04:55.921Z,68.73
2022-12-06T01:05:27.762Z,68.73
2022-12-06T01:06:03.232Z,68.70
2022-12-06T01:06:35.748Z,68.73
2022-12-06T01:07:07.594Z,68.75
2022-12-06T01:07:39.485Z,68.72
2022-12-06T01:08:11.923Z,68.74
2022-12-06T01:08:44.209Z,68.79
2022-12-06T01:09:15.878Z,68.81
2022-12-06T01:09:47.609Z,68.74
2022-12-06T01:10:19.302Z,68.77
2022-12-06T01:10:54.516Z,68.76
2022-12-06T01:11:26.781Z,68.78
2022-12-06T01:11:58.583Z,68.79
2022-12-06T01:12:30.415Z,68.80
2022-12-06T01:13:02.166Z,68.82
2022-12-06T01:13:34.249Z,68.84
2022-12-06T01:14:06.058Z,68.83
2022-12-06T01:14:37.897Z,68.81
2022-12-06T01:15:09.871Z,68.83
2022-12-06T01:15:41.577Z,68.88
2022-12-06T01:16:14.837Z,68.89
2022-12-06T01:16:46.630Z,68.90
2022-12-06T01:17:19.168Z,68.92
2022-12-06T01:17:51.492Z,68.93
2022-12-06T01:18:23.321Z,68.93
2022-12-06T01:18:59.260Z,68.98
2022-12-06T01:19:30.999Z,69.02
2022-12-06T01:20:03.148Z,69.02
2022-12-06T01:20:35.027Z,69.02
2022-12-06T01:21:08.380Z,69.01
2022-12-06T01:21:40.309Z,68.98
2022-12-06T01:22:12.088Z,68.93
2022-12-06T01:22:43.919Z,68.90
2022-12-06T01:23:15.854Z,68.90
2022-12-06T01:23:48.030Z,68.90
2022-12-06T01:24:19.763Z,68.87
2022-12-06T01:24:51.618Z,68.86
2022-12-06T01:25:26.087Z,68.86
2022-12-06T01:25:58.358Z,68.86
2022-12-06T01:26:31.819Z,68.84
2022-12-06T01:27:03.571Z,68.78
2022-12-06T01:27:35.421Z,68.77
2022-12-06T01:28:07.249Z,68.77
2022-12-06T01:28:38.873Z,68.76
2022-12-06T01:29:10.707Z,68.76
2022-12-06T01:29:42.498Z,68.79
2022-12-06T01:30:14.583Z,68.82
2022-12-06T01:30:46.471Z,68.85
2022-12-06T01:31:18.682Z,68.89
2022-12-06T01:31:50.520Z,68.91
2022-12-06T01:32:22.301Z,68.89
2022-12-06T01:32:54.121Z,68.92
2022-12-06T01:33:26.185Z,68.87
2022-12-06T01:33:57.895Z,68.78
2022-12-06T01:34:29.749Z,68.70
2022-12-06T01:35:01.587Z,68.71
2022-12-06T01:35:33.296Z,68.71
2022-12-06T01:36:05.107Z,68.74
2022-12-06T01:36:37.031Z,68.79
2022-12-06T01:37:08.608Z,68.72
2022-12-06T01:37:40.329Z,68.64
2022-12-06T01:38:12.424Z,68.63
2022-12-06T01:38:44.298Z,68.67
2022-12-06T01:39:15.943Z,68.67
2022-12-06T01:39:47.673Z,68.76
2022-12-06T01:40:19.359Z,68.80
2022-12-06T01:40:51.029Z,68.84
2022-12-06T01:41:24.349Z,68.84
2022-12-06T01:41:56.099Z,68.83
2022-12-06T01:42:27.833Z,68.75
2022-12-06T01:42:59.598Z,68.66
2022-12-06T01:43:31.262Z,68.66
2022-12-06T01:44:04.066Z,68.66
2022-12-06T01:45:08.157Z,68.70
2022-12-06T01:45:40.111Z,68.80
2022-12-06T01:46:12.147Z,68.85
2022-12-06T01:46:44.864Z,68.91
2022-12-06T01:47:30.011Z,68.89
2022-12-06T01:48:01.955Z,68.89
2022-12-06T01:48:34.395Z,68.90
2022-12-06T01:49:18.334Z,68.89
2022-12-06T01:49:56.081Z,68.91
2022-12-06T01:50:32.266Z,68.81
2022-12-06T01:51:05.984Z,68.81
2022-12-06T01:51:38.426Z,68.82
2022-12-06T01:52:11.378Z,68.80
2022-12-06T01:52:46.120Z,68.76
2022-12-06T01:53:22.666Z,68.71
2022-12-06T01:53:58.010Z,68.69
2022-12-06T01:54:30.090Z,68.69
2022-12-06T01:55:02.403Z,68.73
2022-12-06T01:55:37.059Z,68.72
2022-12-06T01:56:08.959Z,68.78
2022-12-06T01:56:41.056Z,68.76
2022-12-06T01:57:13.613Z,68.77
2022-12-06T01:57:45.919Z,68.71
2022-12-06T01:58:19.663Z,68.71
2022-12-06T01:58:53.728Z,68.75
2022-12-06T01:59:26.009Z,68.77
2022-12-06T01:59:58.160Z,68.75
2022-12-06T02:00:30.216Z,68.80
2022-12-06T02:01:02.030Z,68.78
2022-12-06T02:01:34.386Z,68.78
2022-12-06T02:02:07.287Z,68.81
2022-12-06T02:02:39.254Z,68.83
2022-12-06T02:03:13.870Z,68.80
2022-12-06T02:03:47.153Z,68.72
2022-12-06T02:04:18.963Z,68.72
2022-12-06T02:04:51.926Z,68.76
2022-12-06T02:05:24.237Z,68.81
2022-12-06T02:05:56.990Z,68.77
2022-12-06T02:06:29.266Z,68.76
2022-12-06T02:07:01.905Z,68.75
2022-12-06T02:07:33.861Z,68.73
2022-12-06T02:08:09.218Z,68.75
2022-12-06T02:08:41.345Z,68.78
2022-12-06T02:09:13.308Z,68.82
2022-12-06T02:09:45.836Z,68.78
2022-12-06T02:10:17.861Z,68.81
2022-12-06T02:10:49.837Z,68.87
2022-12-06T02:11:21.600Z,68.91
2022-12-06T02:11:53.339Z,68.90
2022-12-06T02:12:25.009Z,68.91
2022-12-06T02:12:57.912Z,68.83
2022-12-06T02:13:30.792Z,68.82
2022-12-06T02:14:05.094Z,68.78
2022-12-06T02:14:36.951Z,68.77
2022-12-06T02:15:08.967Z,68.71
2022-12-06T02:15:51.552Z,68.68
2022-12-06T02:16:26.573Z,68.72
2022-12-06T02:17:07.222Z,68.76
2022-12-06T02:17:39.685Z,68.84
2022-12-06T02:18:15.442Z,68.88
2022-12-06T02:18:49.672Z,68.90
2022-12-06T02:19:21.422Z,68.90
2022-12-06T02:20:07.003Z,68.91
2022-12-06T02:20:46.721Z,68.92
2022-12-06T02:21:24.140Z,68.93
2022-12-06T02:22:01.721Z,68.87
2022-12-06T02:22:33.502Z,68.90
2022-12-06T02:23:23.402Z,68.88
2022-12-06T02:24:01.888Z,68.86
2022-12-06T02:24:42.956Z,68.88
2022-12-06T02:25:33.868Z,68.82
2022-12-06T02:26:05.956Z,68.93
2022-12-06T02:26:57.971Z,68.98
2022-12-06T02:28:01.913Z,68.85
2022-12-06T02:28:39.691Z,68.87
2022-12-06T02:29:14.191Z,68.74
2022-12-06T02:29:55.102Z,68.70
2022-12-06T02:30:26.560Z,68.82
2022-12-06T02:31:07.304Z,68.85
2022-12-06T02:31:57.631Z,68.71
2022-12-06T02:32:34.882Z,68.69
2022-12-06T02:33:08.051Z,68.62
2022-12-06T02:33:43.768Z,68.58
2022-12-06T02:34:15.591Z,68.61
2022-12-06T02:34:53.295Z,68.59
2022-12-06T02:35:39.878Z,68.56
2022-12-06T02:36:14.392Z,68.59
2022-12-06T02:36:52.127Z,68.56
2022-12-06T02:37:30.834Z,68.53
2022-12-06T02:38:02.433Z,68.53
2022-12-06T02:38:36.691Z,68.50
2022-12-06T02:39:08.345Z,68.47
2022-12-06T02:39:52.140Z,68.44
2022-12-06T02:40:28.157Z,68.39
2022-12-06T02:41:07.270Z,68.33
2022-12-06T02:41:41.789Z,68.36
2022-12-06T02:42:28.983Z,68.37
2022-12-06T02:43:02.397Z,68.41
2022-12-06T02:43:37.424Z,68.41
2022-12-06T02:44:12.820Z,68.37
2022-12-06T02:44:50.776Z,68.35
2022-12-06T02:45:26.274Z,68.37
2022-12-06T02:46:00.217Z,68.29
2022-12-06T02:46:33.600Z,68.33
2022-12-06T02:47:07.364Z,68.31
2022-12-06T02:47:39.319Z,68.35
2022-12-06T02:48:11.901Z,68.37
2022-12-06T02:48:44.639Z,68.37
2022-12-06T02:49:17.509Z,68.41
2022-12-06T02:49:49.912Z,68.45
2022-12-06T02:50:24.255Z,68.50
2022-12-06T02:51:00.912Z,68.56
2022-12-06T02:51:34.595Z,68.58
2022-12-06T02:52:06.435Z,68.65
2022-12-06T02:52:40.086Z,68.67
2022-12-06T02:53:14.550Z,68.60
2022-12-06T02:53:48.454Z,68.57
2022-12-06T02:54:21.910Z,68.60
2022-12-06T02:54:57.874Z,68.56
2022-12-06T02:55:30.529Z,68.61
2022-12-06T02:56:02.325Z,68.63
2022-12-06T02:56:34.419Z,68.65
2022-12-06T02:57:06.188Z,68.69
2022-12-06T02:57:42.871Z,68.73
2022-12-06T02:58:14.896Z,68.83
2022-12-06T02:58:47.048Z,68.81
2022-12-06T02:59:18.733Z,68.71
2022-12-06T02:59:52.283Z,68.67
2022-12-06T03:00:36.196Z,68.63
2022-12-06T03:01:15.635Z,68.70
2022-12-06T03:01:49.500Z,68.80
2022-12-06T03:02:22.427Z,68.86
2022-12-06T03:02:58.856Z,68.85
2022-12-06T03:03:49.370Z,68.87
2022-12-06T03:04:33.215Z,68.87
2022-12-06T03:05:15.641Z,68.86
2022-12-06T03:06:02.595Z,68.95
2022-12-06T03:06:44.852Z,68.96
2022-12-06T03:07:19.524Z,69.02
2022-12-06T03:07:51.819Z,68.99
2022-12-06T03:08:32.667Z,68.98
2022-12-06T03:09:04.340Z,69.00
2022-12-06T03:09:45.405Z,68.99
2022-12-06T03:10:35.902Z,69.10
2022-12-06T03:11:07.993Z,69.00
2022-12-06T03:11:42.750Z,69.07
2022-12-06T03:12:14.417Z,69.13
2022-12-06T03:12:55.118Z,69.16
2022-12-06T03:13:33.556Z,69.26
2022-12-06T03:14:08.289Z,69.31
2022-12-06T03:14:45.916Z,69.39
2022-12-06T03:15:35.924Z,69.37
2022-12-06T03:16:10.422Z,69.40
2022-12-06T03:16:47.026Z,69.35
2022-12-06T03:17:26.460Z,69.37
2022-12-06T03:18:07.848Z,69.34
2022-12-06T03:18:43.563Z,69.29
2022-12-06T03:19:15.370Z,69.28
2022-12-06T03:19:50.602Z,69.30
2022-12-06T03:20:28.339Z,69.32
2022-12-06T03:21:12.509Z,69.29
2022-12-06T03:22:05.153Z,69.31
2022-12-06T03:22:40.001Z,69.30
2022-12-06T03:23:14.675Z,69.35
2022-12-06T03:23:48.465Z,69.34
2022-12-06T03:24:20.896Z,69.30
2022-12-06T03:24:52.908Z,69.32
2022-12-06T03:25:25.988Z,69.35
2022-12-06T03:25:59.926Z,69.38
2022-12-06T03:26:32.316Z,69.36
2022-12-06T03:27:05.656Z,69.39
2022-12-06T03:27:39.592Z,69.36
2022-12-06T03:28:13.264Z,69.34
2022-12-06T03:28:46.455Z,69.40
2022-12-06T03:29:21.115Z,69.44
2022-12-06T03:29:54.933Z,69.47
2022-12-06T03:30:27.546Z,69.52
2022-12-06T03:31:02.102Z,69.57
2022-12-06T03:31:35.530Z,69.56
2022-12-06T03:32:08.060Z,69.56
2022-12-06T03:32:41.995Z,69.59
2022-12-06T03:33:15.324Z,69.57
2022-12-06T03:33:49.312Z,69.58
2022-12-06T03:34:22.772Z,69.62
2022-12-06T03:34:56.385Z,69.60
2022-12-06T03:35:30.690Z,69.59
2022-12-06T03:36:02.685Z,69.59
2022-12-06T03:36:34.985Z,69.64
2022-12-06T03:37:08.856Z,69.67
2022-12-06T03:37:42.197Z,69.69
2022-12-06T03:38:17.074Z,69.69
2022-12-06T03:38:54.957Z,69.58
2022-12-06T03:39:42.677Z,69.61
2022-12-06T03:40:19.009Z,69.66
2022-12-06T03:40:52.154Z,69.64
2022-12-06T03:41:26.514Z,69.67
2022-12-06T03:41:58.938Z,69.66
2022-12-06T03:42:31.445Z,69.59
2022-12-06T03:43:04.453Z,69.51
2022-12-06T03:43:36.168Z,69.41
2022-12-06T03:44:07.803Z,69.44
2022-12-06T03:44:39.599Z,69.47
2022-12-06T03:45:11.942Z,69.49
2022-12-06T03:45:53.063Z,69.52
2022-12-06T03:46:28.130Z,69.59
2022-12-06T03:47:03.721Z,69.66
2022-12-06T03:47:38.271Z,69.67
2022-12-06T03:48:11.496Z,69.65
2022-12-06T03:48:45.715Z,69.68
2022-12-06T03:49:20.337Z,69.68
2022-12-06T03:49:55.049Z,69.76
2022-12-06T03:50:31.987Z,69.68
2022-12-06T03:51:05.335Z,69.70
2022-12-06T03:51:38.564Z,69.71
2022-12-06T03:52:10.478Z,69.69
2022-12-06T03:52:42.194Z,69.59
2022-12-06T03:53:15.956Z,69.56
2022-12-06T03:53:53.109Z,69.60
2022-12-06T03:54:25.008Z,69.66
2022-12-06T03:54:56.585Z,69.69
2022-12-06T03:55:28.362Z,69.73
2022-12-06T03:56:00.188Z,69.67
2022-12-06T03:56:32.485Z,69.69
2022-12-06T03:57:04.272Z,69.73
2022-12-06T03:57:36.086Z,69.76
2022-12-06T03:58:07.722Z,69.76
2022-12-06T03:58:39.343Z,69.76
2022-12-06T03:59:11.335Z,69.78
2022-12-06T03:59:43.132Z,69.80
2022-12-06T04:00:16.150Z,69.74
2022-12-06T04:00:47.966Z,69.72
2022-12-06T04:01:19.997Z,69.75
2022-12-06T04:01:51.667Z,69.78
2022-12-06T04:02:23.545Z,69.75
2022-12-06T04:02:55.519Z,69.76
2022-12-06T04:03:27.296Z,69.78
2022-12-06T04:03:59.336Z,69.83
2022-12-06T04:04:31.076Z,69.88
2022-12-06T04:05:03.046Z,69.92
2022-12-06T04:05:34.723Z,69.94
2022-12-06T04:06:07.072Z,69.93
2022-12-06T04:06:38.782Z,69.93
2022-12-06T04:07:11.310Z,69.93
2022-12-06T04:07:43.192Z,69.92
2022-12-06T04:08:15.127Z,69.90
2022-12-06T04:08:47.159Z,69.92
2022-12-06T04:09:37.654Z,69.91
2022-12-06T04:10:09.655Z,69.91
2022-12-06T04:10:41.341Z,69.89
2022-12-06T04:11:13.118Z,69.89
2022-12-06T04:11:44.870Z,69.82
2022-12-06T04:12:35.250Z,69.82
2022-12-06T04:13:08.009Z,69.84
2022-12-06T04:13:40.350Z,69.86
2022-12-06T04:14:12.962Z,69.90
2022-12-06T04:14:44.685Z,69.95
2022-12-06T04:15:16.938Z,70.01
2022-12-06T04:15:49.284Z,70.01
2022-12-06T04:16:39.979Z,70.02
2022-12-06T04:17:30.181Z,70.05
2022-12-06T04:18:13.353Z,69.99
2022-12-06T04:18:46.977Z,69.91
2022-12-06T04:19:18.713Z,69.84
2022-12-06T04:19:52.187Z,69.80
2022-12-06T04:20:24.648Z,69.77
2022-12-06T04:21:19.109Z,69.78
2022-12-06T04:22:23.409Z,69.88
2022-12-06T04:23:04.497Z,69.94
2022-12-06T04:23:37.783Z,69.91
2022-12-06T04:24:09.490Z,69.86
2022-12-06T04:24:41.115Z,69.88
2022-12-06T04:25:12.850Z,69.90
2022-12-06T04:25:44.724Z,69.91
2022-12-06T04:26:20.794Z,69.92
2022-12-06T04:27:12.510Z,69.92
2022-12-06T04:28:02.843Z,69.91
2022-12-06T04:28:53.187Z,69.89
2022-12-06T04:29:43.539Z,69.79
2022-12-06T04:30:33.922Z,69.85
2022-12-06T04:31:24.301Z,69.83
2022-12-06T04:32:14.977Z,69.84
2022-12-06T04:33:05.394Z,69.85
2022-12-06T04:33:55.602Z,69.81
2022-12-06T04:34:45.799Z,69.81
2022-12-06T04:35:35.987Z,69.71
2022-12-06T04:36:26.553Z,69.78
2022-12-06T04:37:17.254Z,69.62
2022-12-06T04:38:07.183Z,69.62
2022-12-06T04:38:44.546Z,69.67
2022-12-06T04:39:20.558Z,69.62
2022-12-06T04:39:52.680Z,69.64
2022-12-06T04:40:24.339Z,69.64
2022-12-06T04:40:56.198Z,69.64
2022-12-06T04:41:46.233Z,69.65
2022-12-06T04:42:36.690Z,69.64
2022-12-06T04:43:30.175Z,69.64
2022-12-06T04:44:02.575Z,69.65
2022-12-06T04:44:34.358Z,69.67
2022-12-06T04:45:06.368Z,69.67
2022-12-06T04:45:38.071Z,69.59
2022-12-06T04:46:11.235Z,69.53
2022-12-06T04:46:43.078Z,69.55
2022-12-06T04:47:14.959Z,69.61
2022-12-06T04:47:46.930Z,69.65
2022-12-06T04:48:18.638Z,69.73
2022-12-06T04:48:50.498Z,69.76
2022-12-06T04:49:22.140Z,69.82
2022-12-06T04:49:54.610Z,69.89
2022-12-06T04:50:26.558Z,69.88
2022-12-06T04:50:58.286Z,69.94
2022-12-06T04:51:29.984Z,69.93
2022-12-06T04:52:01.696Z,69.97
2022-12-06T04:52:35.993Z,69.99
2022-12-06T04:53:08.381Z,69.94
2022-12-06T04:53:40.159Z,69.99
2022-12-06T04:54:12.044Z,70.03
2022-12-06T04:54:43.865Z,70.06
2022-12-06T04:55:15.742Z,70.08
2022-12-06T04:55:47.955Z,70.11
2022-12-06T04:56:20.073Z,70.13
2022-12-06T04:56:52.770Z,70.17
2022-12-06T04:57:24.612Z,70.19
2022-12-06T04:57:56.534Z,70.17
2022-12-06T04:58:28.228Z,70.13
2022-12-06T04:58:59.854Z,70.15
2022-12-06T04:59:31.640Z,70.13
2022-12-06T05:00:04.114Z,70.14
2022-12-06T05:00:35.876Z,70.15
2022-12-06T05:01:07.686Z,70.07
2022-12-06T05:01:39.430Z,70.02
2022-12-06T05:02:13.280Z,70.00
2022-12-06T05:02:45.076Z,70.09
2022-12-06T05:03:17.076Z,70.07
2022-12-06T05:03:48.678Z,70.15
2022-12-06T05:04:20.629Z,70.18
2022-12-06T05:04:52.421Z,70.25
2022-12-06T05:05:24.241Z,70.18
2022-12-06T05:05:55.813Z,70.14
2022-12-06T05:06:27.584Z,70.11
2022-12-06T05:06:59.383Z,70.01
2022-12-06T05:07:31.258Z,69.99
2022-12-06T05:08:03.117Z,70.02
2022-12-06T05:08:34.743Z,70.08
2022-12-06T05:09:06.388Z,70.13
2022-12-06T05:09:38.550Z,70.16
2022-12-06T05:10:10.595Z,70.19
2022-12-06T05:10:46.443Z,70.20
2022-12-06T05:11:18.071Z,70.15
2022-12-06T05:11:49.652Z,70.21
2022-12-06T05:12:21.523Z,70.23
2022-12-06T05:12:53.315Z,70.27
2022-12-06T05:13:25.010Z,70.28
2022-12-06T05:13:56.712Z,70.30
2022-12-06T05:14:28.475Z,70.30
2022-12-06T05:15:00.162Z,70.31
2022-12-06T05:15:31.992Z,70.30
2022-12-06T05:16:05.466Z,70.30
2022-12-06T05:16:37.432Z,70.29
2022-12-06T05:17:09.121Z,70.21
2022-12-06T05:17:40.961Z,70.18
2022-12-06T05:18:12.715Z,70.13
2022-12-06T05:18:44.788Z,70.08
2022-12-06T05:19:16.599Z,70.12
2022-12-06T05:19:48.357Z,70.17
2022-12-06T05:20:20.313Z,70.19
2022-12-06T05:21:00.446Z,70.17
2022-12-06T05:21:32.246Z,70.24
2022-12-06T05:22:04.042Z,70.20
2022-12-06T05:22:35.952Z,70.12
2022-12-06T05:23:07.720Z,70.11
2022-12-06T05:23:39.672Z,70.12
2022-12-06T05:24:11.426Z,70.07
2022-12-06T05:24:43.259Z,70.00
2022-12-06T05:25:16.411Z,69.99
2022-12-06T05:25:48.138Z,70.02
2022-12-06T05:26:20.534Z,70.05
2022-12-06T05:26:52.417Z,70.00
2022-12-06T05:27:24.298Z,69.89
2022-12-06T05:27:56.085Z,69.91
2022-12-06T05:28:28.567Z,69.92
2022-12-06T05:29:00.436Z,69.86
2022-12-06T05:29:32.129Z,69.79
2022-12-06T05:30:04.715Z,69.74
2022-12-06T05:30:36.707Z,69.71
2022-12-06T05:31:08.476Z,69.72
2022-12-06T05:31:40.307Z,69.79
2022-12-06T05:32:12.149Z,69.86
2022-12-06T05:32:43.844Z,69.89
2022-12-06T05:33:15.590Z,69.95
2022-12-06T05:33:48.105Z,70.01
2022-12-06T05:34:20.117Z,69.97
2022-12-06T05:34:51.960Z,69.88
2022-12-06T05:35:23.724Z,69.86
2022-12-06T05:35:55.579Z,69.92
2022-12-06T05:36:27.644Z,69.96
2022-12-06T05:36:59.286Z,70.05
2022-12-06T05:37:31.044Z,70.00
2022-12-06T05:38:02.701Z,69.92
2022-12-06T05:38:34.487Z,69.95
2022-12-06T05:39:06.296Z,69.96
2022-12-06T05:39:37.958Z,70.01
2022-12-06T05:40:09.991Z,70.04
2022-12-06T05:40:42.821Z,70.07
2022-12-06T05:41:14.614Z,70.12
2022-12-06T05:41:46.406Z,70.12
2022-12-06T05:42:22.541Z,70.15
2022-12-06T05:42:54.340Z,70.21
2022-12-06T05:43:26.051Z,70.13
2022-12-06T05:43:57.817Z,70.10
2022-12-06T05:44:29.567Z,69.99
2022-12-06T05:45:01.535Z,69.91
2022-12-06T05:45:33.884Z,69.88
2022-12-06T05:46:06.073Z,69.90
2022-12-06T05:46:37.854Z,69.92
2022-12-06T05:47:12.672Z,70.02
2022-12-06T05:47:44.466Z,70.13
2022-12-06T05:48:16.129Z,70.15
2022-12-06T05:48:48.235Z,70.12
2022-12-06T05:49:20.343Z,70.10
2022-12-06T05:49:52.159Z,70.14
2022-12-06T05:50:23.972Z,70.18
2022-12-06T05:50:55.545Z,70.13
2022-12-06T05:51:27.284Z,70.03
2022-12-06T05:52:03.823Z,70.06
2022-12-06T05:52:36.163Z,70.06
2022-12-06T05:53:08.569Z,70.01
2022-12-06T05:53:40.971Z,69.92
2022-12-06T05:54:12.717Z,69.95
2022-12-06T05:54:44.397Z,69.95
2022-12-06T05:55:16.164Z,69.99
2022-12-06T05:55:47.978Z,70.02
2022-12-06T05:56:19.760Z,69.98
2022-12-06T05:56:51.440Z,70.02
2022-12-06T05:57:23.328Z,70.06
2022-12-06T05:57:55.086Z,70.07
2022-12-06T05:58:26.828Z,70.08
2022-12-06T05:58:58.588Z,70.15
2022-12-06T05:59:30.414Z,70.19
2022-12-06T06:00:03.788Z,70.25
2022-12-06T06:00:36.143Z,70.25
2022-12-06T06:01:08.747Z,70.24
2022-12-06T06:01:40.439Z,70.20
2022-12-06T06:02:12.302Z,70.20
2022-12-06T06:02:44.264Z,70.18
2022-12-06T06:03:17.196Z,70.15
2022-12-06T06:03:49.042Z,70.01
2022-12-06T06:04:20.715Z,70.02
2022-12-06T06:04:53.049Z,70.07
2022-12-06T06:05:24.960Z,70.11
2022-12-06T06:05:58.289Z,70.15
2022-12-06T06:06:30.082Z,70.21
2022-12-06T06:07:01.914Z,70.22
2022-12-06T06:07:33.661Z,70.20
2022-12-06T06:08:06.618Z,70.15
2022-12-06T06:08:38.465Z,70.15
2022-12-06T06:09:10.259Z,70.17
2022-12-06T06:09:42.086Z,70.11
2022-12-06T06:10:14.421Z,70.07
2022-12-06T06:10:46.287Z,70.07
2022-12-06T06:11:18.000Z,70.07
2022-12-06T06:11:49.955Z,70.06
2022-12-06T06:12:21.701Z,70.08
2022-12-06T06:12:53.977Z,70.10
2022-12-06T06:13:26.077Z,70.13
2022-12-06T06:13:58.025Z,70.17
2022-12-06T06:14:29.707Z,70.16
2022-12-06T06:15:01.757Z,70.18
2022-12-06T06:15:33.636Z,70.19
2022-12-06T06:16:05.471Z,70.19
2022-12-06T06:16:37.205Z,70.21
2022-12-06T06:17:09.070Z,70.21
2022-12-06T06:17:40.901Z,70.16
2022-12-06T06:18:12.904Z,70.08
2022-12-06T06:18:44.914Z,70.08
2022-12-06T06:19:18.326Z,70.08
2022-12-06T06:19:51.631Z,70.07
2022-12-06T06:20:23.833Z,70.07
2022-12-06T06:20:57.425Z,70.09
2022-12-06T06:21:29.291Z,70.08
2022-12-06T06:22:01.589Z,70.07
2022-12-06T06:22:34.654Z,70.06
2022-12-06T06:23:06.241Z,70.11
2022-12-06T06:23:38.073Z,70.08
2022-12-06T06:24:10.003Z,70.08
2022-12-06T06:24:42.426Z,70.07
2022-12-06T06:25:14.387Z,70.10
2022-12-06T06:25:46.124Z,70.10
2022-12-06T06:26:17.789Z,70.13
2022-12-06T06:26:49.525Z,70.17
2022-12-06T06:27:21.332Z,70.18
2022-12-06T06:27:53.054Z,70.19
2022-12-06T06:28:24.899Z,70.20
2022-12-06T06:28:56.594Z,70.15
2022-12-06T06:29:28.636Z,70.13
2022-12-06T06:30:00.677Z,70.13
2022-12-06T06:30:32.642Z,70.14
2022-12-06T06:31:05.736Z,70.08
2022-12-06T06:31:37.696Z,70.11
2022-12-06T06:32:09.682Z,70.11
2022-12-06T06:32:41.529Z,70.11
2022-12-06T06:33:13.464Z,70.11
2022-12-06T06:33:45.095Z,70.15
2022-12-06T06:34:17.012Z,70.16
2022-12-06T06:34:48.734Z,70.17
2022-12-06T06:35:20.401Z,70.14
2022-12-06T06:35:52.278Z,70.08
2022-12-06T06:36:24.059Z,70.13
2022-12-06T06:36:56.086Z,70.17
2022-12-06T06:37:27.758Z,70.20
2022-12-06T06:37:59.835Z,70.18
2022-12-06T06:38:31.583Z,70.19
2022-12-06T06:39:03.611Z,70.25
2022-12-06T06:39:35.505Z,70.29
2022-12-06T06:40:07.696Z,70.31
2022-12-06T06:40:39.659Z,70.32
2022-12-06T06:41:11.857Z,70.32
2022-12-06T06:41:44.150Z,70.34
2022-12-06T06:42:17.145Z,70.35
2022-12-06T06:42:48.877Z,70.34
2022-12-06T06:43:20.809Z,70.33
2022-12-06T06:43:52.582Z,70.29
2022-12-06T06:44:24.515Z,70.29
2022-12-06T06:44:56.385Z,70.25
2022-12-06T06:45:29.188Z,70.26
2022-12-06T06:46:02.351Z,70.33
2022-12-06T06:46:34.236Z,70.32
2022-12-06T06:47:05.970Z,70.33
2022-12-06T06:47:37.811Z,70.32
2022-12-06T06:48:09.441Z,70.30
2022-12-06T06:48:41.439Z,70.25
2022-12-06T06:49:13.201Z,70.18
2022-12-06T06:49:45.348Z,70.17
2022-12-06T06:50:17.280Z,70.17
2022-12-06T06:50:53.922Z,70.13
2022-12-06T06:51:30.130Z,70.12
2022-12-06T06:52:01.919Z,70.08
2022-12-06T06:52:33.959Z,70.03
2022-12-06T06:53:06.540Z,70.02
2022-12-06T06:53:38.813Z,70.03
2022-12-06T06:54:10.751Z,70.04
2022-12-06T06:54:42.469Z,70.03
2022-12-06T06:55:14.442Z,70.08
2022-12-06T06:55:46.774Z,70.15
2022-12-06T06:56:19.908Z,70.20
2022-12-06T06:56:51.840Z,70.22
2022-12-06T06:57:23.649Z,70.26
2022-12-06T06:57:55.676Z,70.32
2022-12-06T06:58:28.103Z,70.29
2022-12-06T06:58:59.932Z,70.23
2022-12-06T06:59:31.881Z,70.23
2022-12-06T07:00:04.006Z,70.24
2022-12-06T07:00:36.059Z,70.25
2022-12-06T07:01:08.483Z,70.26
2022-12-06T07:01:40.453Z,70.25
2022-12-06T07:02:13.169Z,70.20
2022-12-06T07:02:45.160Z,70.17
2022-12-06T07:03:16.910Z,70.18
2022-12-06T07:03:48.855Z,70.18
2022-12-06T07:04:20.572Z,70.20
2022-12-06T07:04:52.440Z,70.22
2022-12-06T07:05:24.513Z,70.24
2022-12-06T07:05:57.668Z,70.26
2022-12-06T07:06:29.513Z,70.28
2022-12-06T07:07:01.306Z,70.30
2022-12-06T07:07:33.011Z,70.30
2022-12-06T07:08:05.110Z,70.27
2022-12-06T07:08:37.439Z,70.18
2022-12-06T07:09:09.327Z,70.18
2022-12-06T07:09:41.206Z,70.22
2022-12-06T07:10:13.112Z,70.27
2022-12-06T07:10:48.635Z,70.27
2022-12-06T07:11:20.675Z,70.25
2022-12-06T07:11:53.172Z,70.26
2022-12-06T07:12:25.119Z,70.24
2022-12-06T07:12:57.068Z,70.23
2022-12-06T07:13:29.565Z,70.22
2022-12-06T07:14:02.157Z,70.19
2022-12-06T07:14:34.201Z,70.21
2022-12-06T07:15:06.315Z,70.22
2022-12-06T07:15:38.523Z,70.19